Time;durP1;ratioP1;P1;durP2;ratioP2;P2;SDS_P1;SDS_P2;PMS_P1;PMS_P2;Temp;Humidity;BMP_temperature;BMP_pressure;BME280_temperature;BME280_humidity;BME280_pressure;Samples;Min_cycle;Max_cycle;Signal;HPM_P1;HPM_P2
2022/07/27 00:03:27;;;;;;;10.15;7.93;;;;;;;20.94;100.00;99735.38;10292890;28;20050;-67
2022/07/27 00:08:28;;;;;;;9.00;7.90;;;;;;;20.98;100.00;99742.72;10292918;28;20068;-67
2022/07/27 00:13:29;;;;;;;9.70;7.35;;;;;;;20.94;100.00;99733.47;10292605;28;20070;-67
2022/07/27 00:18:30;;;;;;;12.23;7.45;;;;;;;21.07;100.00;99739.56;10292420;28;20046;-67
2022/07/27 00:23:30;;;;;;;9.48;6.20;;;;;;;21.01;100.00;99735.19;10293105;28;20634;-67
2022/07/27 00:28:31;;;;;;;8.40;6.40;;;;;;;20.58;100.00;99661.19;10292570;28;20043;-67
2022/07/27 00:33:32;;;;;;;10.18;7.00;;;;;;;20.80;100.00;99699.81;10292474;28;20490;-67
2022/07/27 00:38:33;;;;;;;9.98;7.00;;;;;;;20.98;100.00;99728.41;10292247;28;20042;-67
2022/07/27 00:43:49;;;;;;;9.48;6.72;;;;;;;20.89;100.00;99719.09;10291235;28;20498;-67
2022/07/27 00:48:50;;;;;;;9.25;6.55;;;;;;;20.57;100.00;99675.78;10291652;28;20062;-68
2022/07/27 00:53:54;;;;;;;9.77;7.00;;;;;;;20.81;100.00;99727.63;10292129;28;20059;-67
2022/07/27 00:58:57;;;;;;;8.48;6.28;;;;;;;20.96;100.00;99742.13;10291885;28;20577;-67
2022/07/27 01:03:57;;;;;;;8.10;6.32;;;;;;;20.95;100.00;99735.09;10291029;28;20043;-67
2022/07/27 01:14:18;;;;;;;8.88;7.15;;;;;;;20.35;100.00;99654.16;10290843;28;20051;-67
2022/07/27 01:19:18;;;;;;;15.82;7.60;;;;;;;20.70;100.00;99721.28;10291184;28;20100;-67
2022/07/27 01:24:19;;;;;;;9.32;6.95;;;;;;;20.63;100.00;99737.66;10291372;28;20130;-67
2022/07/27 01:29:20;;;;;;;8.77;6.82;;;;;;;20.61;100.00;99749.75;10291217;28;20457;-67
2022/07/27 01:34:21;;;;;;;23.77;7.63;;;;;;;20.48;100.00;99732.81;10291277;28;20050;-67
2022/07/27 01:39:22;;;;;;;8.88;6.95;;;;;;;20.58;100.00;99723.25;10291082;28;20047;-69
2022/07/27 01:44:22;;;;;;;10.35;7.60;;;;;;;20.52;100.00;99728.63;10291910;28;20101;-67
2022/07/27 01:49:23;;;;;;;16.15;7.18;;;;;;;20.53;100.00;99732.13;10297557;28;20038;-67
2022/07/27 01:54:24;;;;;;;11.57;6.80;;;;;;;20.46;100.00;99726.88;10298367;28;20750;-67
2022/07/27 01:59:24;;;;;;;8.98;7.50;;;;;;;20.43;100.00;99724.69;10297401;28;20096;-67
2022/07/27 02:04:25;;;;;;;14.50;7.70;;;;;;;20.58;100.00;99734.91;10298292;28;20037;-67
2022/07/27 02:09:26;;;;;;;8.95;6.95;;;;;;;20.63;100.00;99742.22;10298055;28;20602;-67
2022/07/27 02:14:26;;;;;;;8.43;7.28;;;;;;;20.12;100.00;99653.28;10297669;28;20046;-67
2022/07/27 02:19:27;;;;;;;9.10;6.70;;;;;;;20.65;100.00;99726.63;10296873;28;20046;-67
2022/07/27 02:24:28;;;;;;;11.68;6.47;;;;;;;20.68;100.00;99734.22;10297409;28;20046;-67
2022/07/27 02:29:29;;;;;;;12.15;6.47;;;;;;;20.95;100.00;99778.31;10296437;28;20066;-67
2022/07/27 02:34:30;;;;;;;16.15;7.03;;;;;;;20.57;100.00;99706.25;10295035;28;20185;-67
2022/07/27 02:39:31;;;;;;;14.82;7.05;;;;;;;20.76;100.00;99725.69;10308812;28;20046;-67
2022/07/27 02:44:32;;;;;;;10.38;6.60;;;;;;;21.31;100.00;99777.94;10298343;28;20043;-67
2022/07/27 02:49:33;;;;;;;9.63;6.20;;;;;;;21.41;100.00;99784.28;10295532;28;20039;-67
2022/07/27 02:54:34;;;;;;;9.40;5.75;;;;;;;21.85;100.00;99808.56;10296678;28;20117;-67
2022/07/27 02:59:34;;;;;;;7.13;5.65;;;;;;;22.30;100.00;99798.44;10295272;28;20043;-67
2022/07/27 03:04:35;;;;;;;7.68;5.13;;;;;;;22.71;100.00;99747.28;10296060;28;20414;-68
2022/07/27 03:09:36;;;;;;;10.95;4.68;;;;;;;23.94;99.31;99789.22;10295084;28;20058;-67
2022/07/27 03:14:37;;;;;;;8.75;4.90;;;;;;;24.52;92.88;99743.59;10294766;28;20043;-67
2022/07/27 03:19:38;;;;;;;5.43;4.40;;;;;;;25.81;86.89;99828.97;10294855;28;20042;-68
2022/07/27 03:24:38;;;;;;;4.30;3.42;;;;;;;26.63;79.92;99817.53;10294378;28;20039;-69
2022/07/27 03:29:39;;;;;;;7.53;4.07;;;;;;;27.50;75.57;99813.84;10295294;28;20038;-68
2022/07/27 03:34:40;;;;;;;6.55;3.53;;;;;;;28.07;70.93;99800.19;10293897;28;20085;-68
2022/07/27 03:39:41;;;;;;;4.97;3.58;;;;;;;28.58;68.05;99800.16;10294390;28;20486;-68
2022/07/27 03:44:42;;;;;;;5.28;3.30;;;;;;;29.03;65.12;99786.75;10293598;28;20047;-68
2022/07/27 03:49:43;;;;;;;4.10;3.70;;;;;;;29.23;63.83;99793.75;10293019;28;20034;-68
2022/07/27 03:54:44;;;;;;;13.02;4.15;;;;;;;29.13;63.75;99785.72;10351537;28;20038;-68
2022/07/27 03:59:45;;;;;;;32.97;4.40;;;;;;;29.47;62.41;99798.97;10356531;28;20053;-66
2022/07/27 04:04:46;;;;;;;4.30;2.53;;;;;;;28.07;63.57;99802.94;10324137;28;20070;-72
2022/07/27 04:09:47;;;;;;;14.45;2.95;;;;;;;28.15;63.69;99794.88;10327468;28;20101;-70
2022/07/27 04:14:48;;;;;;;6.20;2.40;;;;;;;28.21;60.57;99780.03;10327786;28;20041;-68
2022/07/27 04:19:48;;;;;;;5.63;2.50;;;;;;;28.81;58.66;99787.44;10311363;28;20490;-70
2022/07/27 04:24:49;;;;;;;8.18;2.33;;;;;;;28.71;56.58;99697.44;10302410;28;20054;-68
2022/07/27 04:29:50;;;;;;;8.45;2.75;;;;;;;29.23;56.86;99738.22;10292285;28;20117;-69
2022/07/27 04:34:51;;;;;;;6.85;2.63;;;;;;;29.26;56.98;99781.38;10300223;28;20057;-68
2022/07/27 04:39:56;;;;;;;3.40;2.15;;;;;;;28.36;57.50;99728.94;10335634;28;20049;-68
2022/07/27 04:44:58;;;;;;;4.65;2.30;;;;;;;28.43;58.09;99784.06;10341754;28;20056;-70
2022/07/27 04:49:59;;;;;;;4.57;2.05;;;;;;;28.05;58.37;99762.25;10330908;28;20042;-71
2022/07/27 04:55:00;;;;;;;5.90;2.47;;;;;;;27.50;58.76;99707.44;10330711;28;20043;-70
2022/07/27 05:00:01;;;;;;;5.80;2.85;;;;;;;27.89;58.63;99747.25;10331582;28;20042;-70
2022/07/27 05:05:02;;;;;;;3.88;2.50;;;;;;;27.62;59.76;99743.25;10330604;28;20521;-70
2022/07/27 05:10:03;;;;;;;4.57;2.83;;;;;;;27.15;60.22;99706.84;10331699;28;20089;-70
2022/07/27 05:15:05;;;;;;;14.75;3.13;;;;;;;27.28;60.75;99730.66;10331405;28;20040;-70
2022/07/27 05:20:06;;;;;;;8.52;3.00;;;;;;;27.09;61.15;99733.31;10333306;28;20049;-70
2022/07/27 05:25:07;;;;;;;7.57;3.10;;;;;;;26.78;62.42;99683.84;10339679;28;20513;-70
2022/07/27 05:30:09;;;;;;;3.50;2.33;;;;;;;27.18;61.73;99747.16;10339941;28;20042;-70
2022/07/27 05:35:10;;;;;;;4.53;2.38;;;;;;;26.76;62.15;99690.69;10339506;28;20062;-70
2022/07/27 05:40:11;;;;;;;3.33;2.28;;;;;;;27.23;61.76;99779.81;10339620;28;20202;-69
2022/07/27 05:45:12;;;;;;;9.07;2.47;;;;;;;27.46;60.04;99788.22;10339522;28;20053;-68
2022/07/27 05:50:15;;;;;;;6.43;2.72;;;;;;;27.70;61.58;99802.63;10339227;28;20074;-69
2022/07/27 05:55:16;;;;;;;3.93;2.30;;;;;;;27.39;60.42;99746.88;10339223;28;20034;-69
2022/07/27 06:00:17;;;;;;;3.38;2.28;;;;;;;27.93;59.01;99813.78;10337214;28;20042;-69
2022/07/27 06:05:17;;;;;;;4.65;2.58;;;;;;;27.92;58.73;99823.91;10337646;28;20074;-69
2022/07/27 06:10:19;;;;;;;3.70;2.40;;;;;;;26.57;59.98;99713.25;10337766;28;20467;-69
2022/07/27 06:15:20;;;;;;;4.40;2.53;;;;;;;26.35;61.33;99759.19;10337843;28;20520;-70
2022/07/27 06:20:22;;;;;;;8.30;2.60;;;;;;;26.47;61.69;99821.44;10336964;28;20046;-69
2022/07/27 06:25:26;;;;;;;5.90;2.70;;;;;;;26.50;62.05;99826.34;10338165;28;20038;-69
2022/07/27 06:30:27;;;;;;;6.70;2.75;;;;;;;26.09;62.31;99783.94;10337218;28;20066;-69
2022/07/27 06:35:28;;;;;;;6.35;2.70;;;;;;;26.08;63.16;99808.69;10336287;28;20066;-70
2022/07/27 06:40:30;;;;;;;6.45;3.05;;;;;;;26.05;64.06;99822.88;10337372;28;20044;-71
2022/07/27 06:45:31;;;;;;;7.33;3.50;;;;;;;25.67;64.70;99760.00;10336793;28;20395;-70
2022/07/27 06:50:32;;;;;;;7.07;3.38;;;;;;;26.25;65.27;99830.88;10334635;28;20125;-71
2022/07/27 06:55:33;;;;;;;3.58;2.63;;;;;;;26.13;64.46;99805.94;10335763;28;20042;-71
2022/07/27 07:00:34;;;;;;;10.00;2.92;;;;;;;26.18;64.61;99819.53;10334631;28;20045;-70
2022/07/27 07:05:42;;;;;;;9.52;3.38;;;;;;;26.34;65.23;99828.38;10335452;28;20132;-70
2022/07/27 07:10:44;;;;;;;4.22;2.97;;;;;;;26.11;64.18;99808.13;10334330;28;20406;-70
2022/07/27 07:15:45;;;;;;;6.50;3.05;;;;;;;26.14;64.97;99813.00;10335586;28;20073;-70
2022/07/27 07:20:46;;;;;;;4.97;2.80;;;;;;;25.54;65.20;99755.16;10335200;28;20050;-71
2022/07/27 07:25:47;;;;;;;4.15;2.63;;;;;;;25.63;66.24;99797.00;10335550;28;20385;-70
2022/07/27 07:30:48;;;;;;;4.78;3.13;;;;;;;25.71;67.25;99851.63;10336307;28;20474;-70
2022/07/27 07:35:49;;;;;;;7.95;3.08;;;;;;;25.24;67.25;99776.78;10334191;28;20508;-70
2022/07/27 07:40:50;;;;;;;3.70;2.63;;;;;;;25.66;67.90;99851.63;10334973;28;20132;-70
2022/07/27 07:45:51;;;;;;;4.25;2.65;;;;;;;25.46;68.12;99817.22;10333865;28;20287;-71
2022/07/27 07:50:52;;;;;;;5.13;2.58;;;;;;;25.04;67.65;99757.84;10334946;28;20057;-70
2022/07/27 07:55:57;;;;;;;9.05;3.20;;;;;;;25.46;68.93;99851.75;10333393;28;20130;-70
2022/07/27 08:00:58;;;;;;;4.93;2.65;;;;;;;25.30;69.94;99858.34;10332571;28;20518;-70
2022/07/27 08:05:58;;;;;;;9.68;3.22;;;;;;;24.51;74.74;99803.63;10332573;28;20129;-71
2022/07/27 08:10:59;;;;;;;6.40;3.17;;;;;;;24.16;78.32;99843.22;10333674;28;20050;-72
2022/07/27 08:16:00;;;;;;;8.27;2.95;;;;;;;23.99;80.55;99878.75;10334481;28;20049;-71
2022/07/27 08:21:01;;;;;;;8.77;2.95;;;;;;;23.52;81.61;99886.97;10332992;28;20465;-70
2022/07/27 08:26:02;;;;;;;4.28;1.70;;;;;;;22.56;82.76;99807.56;10333453;28;20038;-72
2022/07/27 08:31:03;;;;;;;3.95;1.40;;;;;;;22.79;86.05;99899.25;10332712;28;20090;-70
2022/07/27 08:36:03;;;;;;;3.55;1.27;;;;;;;22.66;87.27;99888.84;10332928;28;20573;-69
2022/07/27 08:41:07;;;;;;;2.40;1.35;;;;;;;22.31;86.54;99897.47;10332281;28;20133;-69
2022/07/27 08:46:09;;;;;;;4.78;1.75;;;;;;;22.32;88.84;99921.56;10332179;28;20034;-70
2022/07/27 08:51:10;;;;;;;2.72;1.30;;;;;;;22.14;86.88;99911.09;10332182;28;20092;-70
2022/07/27 08:56:12;;;;;;;2.20;1.10;;;;;;;21.60;86.98;99871.28;10330411;28;20120;-71
2022/07/27 09:01:13;;;;;;;7.13;1.30;;;;;;;21.74;87.46;99968.19;10330835;28;20038;-69
2022/07/27 09:06:47;;;;;;;5.60;1.02;;;;;;;21.56;89.82;99977.44;10331319;28;20034;-69
2022/07/27 09:12:06;;;;;;;6.40;1.48;;;;;;;21.24;90.88;99956.44;10332322;28;20054;-69
2022/07/27 09:17:26;;;;;;;5.20;1.73;;;;;;;21.09;90.76;99959.72;10329841;28;20042;-69
2022/07/27 09:22:57;;;;;;;3.55;1.40;;;;;;;21.26;91.41;99996.69;10332410;28;20520;-71
2022/07/27 09:27:58;;;;;;;5.30;1.77;;;;;;;20.71;89.24;99953.16;10330876;28;20042;-70
2022/07/27 09:33:02;;;;;;;3.35;1.60;;;;;;;20.65;90.96;99967.63;10331016;28;20089;-71
2022/07/27 09:38:23;;;;;;;3.05;1.40;;;;;;;20.41;94.69;99944.50;10331907;28;20046;-72
2022/07/27 09:43:25;;;;;;;3.67;1.13;;;;;;;20.33;92.08;100023.94;10330126;28;20042;-74
2022/07/27 09:48:26;;;;;;;2.63;1.10;;;;;;;20.04;93.52;100010.44;10331598;28;20093;-70
2022/07/27 09:53:31;;;;;;;5.30;1.20;;;;;;;20.10;96.51;100054.47;10330358;28;20439;-71
2022/07/27 09:58:48;;;;;;;2.80;1.10;;;;;;;19.99;99.78;100045.38;10330206;28;20039;-71
2022/07/27 10:03:59;;;;;;;5.25;1.13;;;;;;;19.95;100.00;100049.59;10330266;28;20303;-69
2022/07/27 10:09:00;;;;;;;3.95;1.25;;;;;;;19.87;97.97;100041.88;10334873;28;20089;-72
2022/07/27 10:14:01;;;;;;;4.93;1.20;;;;;;;19.27;98.73;99955.91;10338213;28;20042;-72
2022/07/27 10:19:04;;;;;;;12.20;1.67;;;;;;;19.64;100.00;100025.69;10337152;28;20058;-72
2022/07/27 10:24:11;;;;;;;3.28;1.13;;;;;;;19.32;100.00;99985.63;10338130;28;20074;-73
2022/07/27 10:29:17;;;;;;;3.45;1.20;;;;;;;19.49;100.00;99993.81;10336801;28;20105;-71
2022/07/27 10:34:35;;;;;;;3.22;1.17;;;;;;;19.51;100.00;99989.84;10336670;28;20042;-72
2022/07/27 10:45:17;;;;;;;7.72;1.60;;;;;;;19.01;100.00;99892.56;10335089;28;20584;-69
2022/07/27 10:50:25;;;;;;;3.40;1.23;;;;;;;19.43;100.00;99965.94;10336107;28;20045;-71
2022/07/27 10:55:28;;;;;;;3.80;1.10;;;;;;;19.53;100.00;99976.97;10334474;28;20076;-70
2022/07/27 11:00:48;;;;;;;2.85;1.20;;;;;;;19.11;100.00;99890.09;10336287;28;20046;-71
2022/07/27 11:06:02;;;;;;;3.30;1.30;;;;;;;19.50;100.00;99961.25;10336492;28;20057;-71
2022/07/27 11:11:04;;;;;;;7.95;1.60;;;;;;;19.25;100.00;99912.22;10335094;28;20058;-70
2022/07/27 11:16:09;;;;;;;6.28;1.50;;;;;;;19.27;100.00;99910.13;10335465;28;20529;-71
2022/07/27 11:21:37;;;;;;;4.20;1.20;;;;;;;19.69;100.00;99953.09;10335416;28;20544;-71
2022/07/27 11:26:41;;;;;;;7.93;1.50;;;;;;;19.10;100.00;99853.47;10333984;28;20564;-71
2022/07/27 11:31:44;;;;;;;6.03;1.40;;;;;;;19.34;100.00;99865.03;10334843;28;20046;-71
2022/07/27 11:36:47;;;;;;;3.63;2.20;;;;;;;19.48;100.00;99841.34;10333489;28;20080;-70
2022/07/27 11:41:48;;;;;;;5.10;1.77;;;;;;;20.17;99.71;99901.47;10333354;28;20137;-70
2022/07/27 11:46:51;;;;;;;7.63;1.65;;;;;;;19.72;99.56;99815.97;10334761;28;20141;-70
2022/07/27 11:51:53;;;;;;;3.60;1.33;;;;;;;20.46;99.01;99909.50;10333070;28;20041;-70
2022/07/27 11:57:07;;;;;;;2.63;1.38;;;;;;;20.17;100.00;99847.53;10332692;28;20049;-70
2022/07/27 12:02:14;;;;;;;2.22;1.10;;;;;;;20.42;96.35;99855.22;10333850;28;20038;-70
2022/07/27 12:07:29;;;;;;;9.18;1.55;;;;;;;21.07;96.55;99915.91;10332218;28;20405;-70
2022/07/27 12:12:31;;;;;;;5.25;1.13;;;;;;;21.35;94.45;99906.03;10331918;28;20038;-71
2022/07/27 12:17:39;;;;;;;4.10;1.13;;;;;;;21.63;93.42;99881.59;10316901;28;20149;-69
2022/07/27 12:22:49;;;;;;;3.17;1.10;;;;;;;21.89;91.02;99890.78;10303137;28;20482;-72
2022/07/27 12:28:05;;;;;;;2.88;0.90;;;;;;;21.21;88.81;99748.94;10310982;28;20455;-73
2022/07/27 12:33:30;;;;;;;7.57;1.48;;;;;;;22.16;89.13;99889.97;10291438;28;20121;-70
2022/07/27 12:38:47;;;;;;;4.50;1.13;;;;;;;22.05;88.14;99891.78;10291830;28;20052;-71
2022/07/27 12:44:14;;;;;;;2.03;1.40;;;;;;;21.53;89.20;99807.66;10328170;28;20181;-70
2022/07/27 12:49:15;;;;;;;3.22;1.13;;;;;;;21.89;88.26;99871.84;10314347;28;20093;-67
2022/07/27 12:54:18;;;;;;;5.47;1.08;;;;;;;21.85;88.41;99880.75;10331398;28;20053;-69
2022/07/27 12:59:22;;;;;;;1.25;0.93;;;;;;;21.93;88.63;99906.50;10331507;28;20046;-70
2022/07/27 13:04:23;;;;;;;11.30;1.40;;;;;;;22.01;89.21;99925.00;10332194;28;20524;-68
2022/07/27 13:09:23;;;;;;;2.50;1.13;;;;;;;21.79;89.42;99874.47;10331298;28;20145;-69
2022/07/27 13:14:24;;;;;;;2.15;1.00;;;;;;;22.06;89.94;99923.16;10329258;28;20057;-67
2022/07/27 13:19:25;;;;;;;3.47;1.42;;;;;;;21.92;90.19;99896.75;10336768;28;20046;-68
2022/07/27 13:24:26;;;;;;;1.73;1.17;;;;;;;21.92;90.92;99929.22;10330950;28;20410;-70
2022/07/27 13:29:27;;;;;;;4.43;1.38;;;;;;;21.38;92.06;99860.44;10330901;28;20057;-69
2022/07/27 13:34:28;;;;;;;9.82;1.90;;;;;;;21.95;93.55;99955.75;10330411;28;20038;-69
2022/07/27 13:39:28;;;;;;;2.75;1.42;;;;;;;21.28;93.37;99859.50;10331002;28;20097;-68
2022/07/27 13:44:29;;;;;;;3.47;1.83;;;;;;;21.89;94.47;99963.78;10338703;28;20035;-69
2022/07/27 13:49:30;;;;;;;4.72;2.03;;;;;;;21.29;93.86;99856.53;10341492;28;20038;-69
2022/07/27 13:54:31;;;;;;;6.45;1.90;;;;;;;21.80;94.00;99926.63;10336988;28;20049;-69
2022/07/27 15:31:40;;;;;;;6.43;2.80;;;;;;;20.62;100.00;100034.78;10573993;27;20772;-69
2022/07/27 15:36:40;;;;;;;6.82;3.08;;;;;;;20.68;100.00;100006.81;10574380;28;20089;-70
2022/07/27 15:41:41;;;;;;;9.15;3.30;;;;;;;20.83;100.00;100006.25;10574050;28;20039;-68
2022/07/27 15:53:55;;;;;;;7.28;2.42;;;;;;;20.81;100.00;100027.28;10531968;28;20430;-67
2022/07/27 15:58:56;;;;;;;3.60;1.67;;;;;;;20.78;100.00;100004.28;10532211;28;20135;-67
2022/07/27 16:03:57;;;;;;;8.05;1.95;;;;;;;20.87;100.00;100012.81;10532649;28;20036;-67
2022/07/27 16:08:59;;;;;;;4.93;1.60;;;;;;;21.07;100.00;100044.75;10531132;28;20044;-68
2022/07/27 16:13:59;;;;;;;8.52;2.20;;;;;;;20.72;100.00;99987.16;10532077;28;20054;-67
2022/07/27 16:19:01;;;;;;;7.43;2.15;;;;;;;21.07;100.00;100033.94;10530789;28;20044;-67
2022/07/27 16:24:01;;;;;;;7.10;2.20;;;;;;;20.60;100.00;99974.81;10530680;28;20036;-67
2022/07/27 16:29:02;;;;;;;6.32;1.80;;;;;;;20.91;100.00;100022.88;10530577;28;20123;-68
2022/07/27 16:34:03;;;;;;;8.02;2.42;;;;;;;21.03;100.00;100047.13;10530809;28;20089;-70
2022/07/27 16:39:04;;;;;;;12.10;2.97;;;;;;;20.93;100.00;100058.53;10531246;28;20044;-69
2022/07/27 16:44:05;;;;;;;7.95;2.88;;;;;;;20.41;100.00;99988.47;10529964;28;20033;-67
2022/07/27 16:49:06;;;;;;;5.32;2.22;;;;;;;20.30;100.00;99983.94;10529627;28;20049;-68
2022/07/27 16:54:07;;;;;;;5.55;2.22;;;;;;;20.71;100.00;100065.72;10530137;28;20138;-68
2022/07/27 16:59:08;;;;;;;8.68;2.83;;;;;;;20.40;100.00;100019.22;10528413;28;20059;-67
2022/07/27 17:04:09;;;;;;;7.03;3.80;;;;;;;20.20;100.00;99999.94;10507076;28;20049;-67
2022/07/27 17:09:10;;;;;;;26.13;22.20;;;;;;;20.56;100.00;100065.41;10433980;28;20043;-67
2022/07/27 17:14:13;;;;;;;11.55;6.20;;;;;;;20.42;100.00;100054.84;10427264;28;20702;-68
2022/07/27 17:19:15;;;;;;;17.53;14.40;;;;;;;20.33;100.00;100053.59;10428031;28;20048;-68
2022/07/27 17:24:16;;;;;;;17.02;8.93;;;;;;;20.36;100.00;100069.31;10457077;28;20061;-68
2022/07/27 17:29:17;;;;;;;8.77;5.80;;;;;;;20.27;100.00;100049.16;10456642;28;20141;-69
2022/07/27 17:34:18;;;;;;;8.50;4.38;;;;;;;20.27;100.00;100068.84;10456125;28;20127;-69
2022/07/27 17:39:19;;;;;;;8.00;4.90;;;;;;;19.72;100.00;99993.03;10456194;28;20041;-69
2022/07/27 17:44:19;;;;;;;6.05;3.22;;;;;;;20.13;100.00;100072.06;10441965;28;20039;-69
2022/07/27 17:49:21;;;;;;;4.97;3.50;;;;;;;19.82;100.00;100034.47;10450827;28;20127;-68
2022/07/27 17:54:21;;;;;;;12.05;3.50;;;;;;;19.81;100.00;100054.41;10448008;28;20044;-68
2022/07/27 17:59:22;;;;;;;7.10;2.72;;;;;;;19.36;100.00;100002.97;10452189;28;20507;-68
2022/07/27 18:04:24;;;;;;;9.32;3.00;;;;;;;19.66;100.00;100062.16;10450117;28;20148;-69
2022/07/27 18:09:25;;;;;;;13.02;4.80;;;;;;;19.58;100.00;100073.25;10439857;28;20037;-68
2022/07/27 18:14:25;;;;;;;8.98;4.55;;;;;;;18.82;100.00;99948.38;10439895;28;20037;-70
2022/07/27 18:19:26;;;;;;;8.02;3.45;;;;;;;19.69;100.00;100093.22;10448234;28;20431;-68
2022/07/27 18:24:28;;;;;;;6.32;3.25;;;;;;;19.69;100.00;100080.56;10451620;28;20041;-68
2022/07/27 18:29:29;;;;;;;5.78;3.08;;;;;;;19.31;100.00;100013.63;10449863;28;20032;-68
2022/07/27 18:34:30;;;;;;;25.48;4.28;;;;;;;19.79;100.00;100102.34;10450211;28;20041;-70
2022/07/27 18:39:30;;;;;;;9.13;3.60;;;;;;;19.75;100.00;100089.56;10446754;28;20040;-68
2022/07/27 18:44:32;;;;;;;10.05;3.35;;;;;;;18.68;100.00;99936.97;10430715;28;20063;-72
2022/07/27 18:49:34;;;;;;;12.57;7.63;;;;;;;19.54;100.00;100082.84;10429383;28;20132;-68
2022/07/27 18:54:35;;;;;;;25.98;8.75;;;;;;;19.49;100.00;100075.47;10415401;28;20041;-68
2022/07/27 18:59:36;;;;;;;17.42;9.57;;;;;;;19.02;100.00;100007.25;10429864;28;20075;-68
2022/07/27 19:04:37;;;;;;;20.50;8.85;;;;;;;19.37;100.00;100075.44;10414710;28;20041;-68
2022/07/27 19:09:38;;;;;;;19.40;8.18;;;;;;;19.20;100.00;100044.84;10414835;28;20139;-67
2022/07/27 19:14:39;;;;;;;10.18;5.65;;;;;;;19.32;100.00;100071.81;10439742;28;20083;-68
2022/07/27 19:19:39;;;;;;;7.82;4.07;;;;;;;19.21;100.00;100067.25;10452494;28;20072;-68
2022/07/27 19:24:40;;;;;;;9.00;4.80;;;;;;;18.96;100.00;100046.69;10441416;28;20045;-68
2022/07/27 19:29:41;;;;;;;9.38;4.28;;;;;;;18.94;100.00;100056.88;10442782;28;20045;-68
2022/07/27 19:34:42;;;;;;;15.93;8.60;;;;;;;19.10;100.00;100085.00;10413368;28;20091;-68
2022/07/27 19:39:43;;;;;;;12.00;7.15;;;;;;;19.11;100.00;100076.69;10413366;28;20038;-68
2022/07/27 19:44:44;;;;;;;5.97;4.57;;;;;;;19.18;100.00;100075.78;10413426;28;20041;-68
2022/07/27 19:49:46;;;;;;;10.73;4.40;;;;;;;19.22;100.00;100075.06;10413389;28;20559;-69
2022/07/27 19:54:47;;;;;;;9.15;4.00;;;;;;;19.25;100.00;100071.09;10412664;28;20057;-68
2022/07/27 19:59:48;;;;;;;6.85;3.90;;;;;;;18.88;100.00;100014.75;10413487;28;20053;-68
2022/07/27 20:04:48;;;;;;;6.72;3.90;;;;;;;19.35;100.00;100087.50;10412910;28;20549;-68
2022/07/27 20:09:49;;;;;;;8.77;4.93;;;;;;;19.41;100.00;100083.88;10411968;28;20077;-68
2022/07/27 20:14:50;;;;;;;9.65;4.35;;;;;;;19.50;100.00;100085.19;10413568;28;20044;-68
2022/07/27 20:19:51;;;;;;;12.50;4.35;;;;;;;19.39;100.00;100061.75;10412380;28;20037;-68
2022/07/27 20:24:52;;;;;;;7.88;3.83;;;;;;;19.59;100.00;100081.09;10413731;28;20049;-68
2022/07/27 20:29:53;;;;;;;9.65;4.18;;;;;;;19.55;100.00;100065.63;10412253;28;20041;-68
2022/07/27 20:34:53;;;;;;;8.52;4.53;;;;;;;19.70;100.00;100084.88;10412223;28;20088;-68
2022/07/27 20:39:54;;;;;;;7.28;4.32;;;;;;;19.67;100.00;100085.34;10418066;28;20128;-68
2022/07/27 20:44:55;;;;;;;11.70;4.28;;;;;;;19.78;100.00;100098.00;10419569;28;20037;-68
2022/07/27 20:49:56;;;;;;;6.93;3.95;;;;;;;19.15;100.00;100004.38;10419600;28;20064;-68
2022/07/27 20:54:57;;;;;;;6.90;4.03;;;;;;;19.06;100.00;99998.50;10419780;28;20377;-68
2022/07/27 20:59:57;;;;;;;8.52;4.25;;;;;;;19.66;100.00;100102.56;10419341;28;20041;-68
2022/07/27 21:04:58;;;;;;;6.03;4.15;;;;;;;19.09;100.00;100019.56;10419098;28;20046;-68
2022/07/27 21:09:59;;;;;;;6.30;3.85;;;;;;;19.36;100.00;100056.84;10418272;28;20139;-68
2022/07/27 21:15:00;;;;;;;7.93;4.55;;;;;;;19.10;100.00;100029.28;10419247;28;20045;-69
2022/07/27 21:20:01;;;;;;;7.80;4.50;;;;;;;19.60;100.00;100104.28;10418074;28;20100;-68
2022/07/27 21:25:02;;;;;;;7.15;4.85;;;;;;;19.55;100.00;100108.75;10417848;28;20050;-68
2022/07/27 21:30:04;;;;;;;7.57;5.35;;;;;;;18.87;100.00;100005.00;10417657;28;20049;-69
2022/07/27 21:35:05;;;;;;;15.07;5.00;;;;;;;19.35;100.00;100096.44;10418716;28;20432;-68
2022/07/27 21:40:06;;;;;;;8.88;5.18;;;;;;;19.37;100.00;100109.66;10428284;28;20053;-68
2022/07/27 21:45:08;;;;;;;16.85;4.72;;;;;;;19.31;100.00;100102.50;10416931;28;20485;-68
2022/07/27 21:50:09;;;;;;;8.57;4.20;;;;;;;19.29;100.00;100108.09;10417424;28;20085;-68
2022/07/27 21:55:10;;;;;;;8.15;4.18;;;;;;;19.08;100.00;100077.13;10415912;28;20080;-68
2022/07/27 22:00:14;;;;;;;5.43;3.95;;;;;;;19.02;100.00;100064.59;10416028;28;20042;-68
2022/07/27 22:05:16;;;;;;;7.32;3.85;;;;;;;19.30;100.00;100114.34;10417345;28;20041;-68
2022/07/27 22:10:18;;;;;;;5.60;4.22;;;;;;;19.27;100.00;100104.84;10431905;28;20095;-68
2022/07/27 22:15:19;;;;;;;11.73;4.50;;;;;;;19.23;100.00;100111.72;10417041;28;20041;-68
2022/07/27 22:20:21;;;;;;;5.60;4.22;;;;;;;18.96;100.00;100057.44;10416375;28;20045;-69
2022/07/27 22:25:21;;;;;;;7.13;4.30;;;;;;;19.38;100.00;100119.34;10416955;28;20049;-68
2022/07/27 22:30:22;;;;;;;6.78;4.15;;;;;;;19.41;100.00;100123.47;10415172;28;20413;-70
2022/07/27 22:35:24;;;;;;;6.80;4.32;;;;;;;19.20;100.00;100090.63;10415684;28;20167;-68
2022/07/27 22:40:24;;;;;;;6.20;4.53;;;;;;;18.91;100.00;100055.47;10415244;28;20037;-68
2022/07/27 22:45:25;;;;;;;6.28;4.70;;;;;;;19.15;100.00;100110.19;10413985;28;20037;-68
2022/07/27 22:50:26;;;;;;;8.20;4.68;;;;;;;18.94;100.00;100083.78;10414990;28;20080;-68
2022/07/27 22:55:27;;;;;;;10.75;4.35;;;;;;;19.01;100.00;100095.28;10414847;28;20038;-68
2022/07/27 23:00:28;;;;;;;7.47;4.05;;;;;;;18.41;100.00;100014.53;10414165;28;20049;-68
2022/07/27 23:05:29;;;;;;;13.63;4.53;;;;;;;19.06;100.00;100133.09;10414503;28;20124;-68
2022/07/27 23:10:45;;;;;;;8.52;4.40;;;;;;;18.85;100.00;100104.81;10414793;28;20045;-68
2022/07/27 23:15:46;;;;;;;8.13;4.78;;;;;;;18.85;100.00;100109.38;10414282;28;20080;-68
2022/07/27 23:20:47;;;;;;;6.40;4.65;;;;;;;18.94;100.00;100134.94;10414099;28;20041;-68
2022/07/27 23:25:48;;;;;;;7.07;4.70;;;;;;;18.43;100.00;100077.81;10413376;28;20041;-68
2022/07/27 23:30:50;;;;;;;7.97;4.78;;;;;;;18.39;100.00;100078.47;10445730;28;20107;-69
2022/07/27 23:35:51;;;;;;;7.53;4.95;;;;;;;18.52;100.00;100102.53;10426892;28;20037;-68
2022/07/27 23:40:52;;;;;;;6.25;4.88;;;;;;;18.69;100.00;100145.78;10413248;28;20045;-68
2022/07/27 23:45:53;;;;;;;7.57;5.28;;;;;;;18.10;100.00;100054.03;10412723;28;20055;-69
2022/07/27 23:50:53;;;;;;;7.95;5.07;;;;;;;18.57;100.00;100148.41;10413624;28;20053;-69
2022/07/27 23:55:54;;;;;;;7.35;4.75;;;;;;;18.50;100.00;100139.59;10414054;28;20049;-68
